Laman API Video Percuma Terbaik

AVDBAPI.COM

Cari katalog, semak rekod, dan salin URL API bersih daripada papan pemuka pantas.

Telegram Join Our Telegram Community for Updates!
Today
0
Kemaskini Hari Ini
Censored
314141
Censored Videos
Total
474352
Total Videos

Senarai Video

Rekod terkini disusun mengikut masa kemas kini.

ID Nama CODE Kategori Dikemaskini API
271311 H0930-KI181215 Pek Emas: Wanita Kerjaya Berkahwin Berusia 20 Tahun H0930-KI181215 Tanpa sensor 2025-08-29 21:36:50 API
271310 HEYZO-1978 Telanjang Bulat di Depan Pintu! HEYZO-1978 Tanpa sensor 2025-08-29 21:36:40 API
271309 K1282 Wanita Mangsa K1282 Tanpa sensor 2025-08-29 21:36:30 API
271308 FC2-PPV-1327775 [Tanpa Sensor] Wanita cantik buat lelaki yang dia kutip tu pancut dalam dirinya FC2-PPV-1327775 Tanpa sensor 2025-08-29 21:36:20 API
271307 111117-172 Isteri cantik mengikut naluri dan berguling 111117-172 Tanpa sensor 2025-08-29 21:36:10 API
271306 051019-916 Pavilion Penyembuhan Dewasa Sofistikated - Aku akan memelukmu dengan kemaluan ketatku - Ami 051019-916 Tanpa sensor 2025-08-29 21:36:00 API
271305 050518-01 Masukkan banyak 050518-01 Tanpa sensor 2025-08-29 21:35:50 API
271304 H4610-ORI1701 Hinata Nishii, Gadis Berusia 22 Tahun H4610-ORI1701 Tanpa sensor 2025-08-29 21:35:40 API
271303 012817 Koleksi Model Seksi Mizushima 012817_473 Tanpa sensor 2025-08-29 21:35:30 API
271301 111417-173 Wanita Matang Tanpa Solekan ~ Makcik Basah Berlendir ~ 111417-173 Tanpa sensor 2025-08-29 21:35:10 API
271300 C0930-KI180812 Yui Onuki, 22 tahun C0930-KI180812 Tanpa sensor 2025-08-29 21:35:00 API
271299 SUKE-179 Ingin Diwarnai Oleh Fetish Lelaki x Trip Pembuahan Satu Malam di Tepi Laut: Si Cantik Berwibawa yang Mudah Jatuh Cinta dan Ditipu, Seks Intens Dengan Kakak Perempuan Masokis Tersembunyi SUKE-179 Mosaik 2025-08-29 21:34:50 API
271298 051119-917 Skandal cinta pengantin perempuan yang menggoncang hatinya sejurus sebelum perkahwinan @YOU 051119-917 Tanpa sensor 2025-08-29 21:34:40 API
271297 H0930-GOL187 Mika Motoi Wanita Matang 40 Tahun H0930-GOL187 Tanpa sensor 2025-08-29 21:34:30 API
271296 050618-01 Saya dah masuk! Pengalaman dubur pertama kali 050618-01 Tanpa sensor 2025-08-29 21:34:20 API
271295 HEYZO-1979 Kenikmatan Urutan Erotik! ~ Bersama Yua Ariga ~ HEYZO-1979 Tanpa sensor 2025-08-29 21:34:10 API
271294 013117 Bekas penghibur Amelie Koshikawa kena kangkang sampai pengsan 013117_474 Tanpa sensor 2025-08-29 21:34:00 API
271293 051219-918 Seks Terbuka Di Luar Rumah ~ Permainan Melompat Yang Memalukan Semasa Temujanji ~ Nanami Yui 051219-918 Tanpa sensor 2025-08-29 21:33:50 API
271292 H4610-KI191026 Koleksi Video Permintaan Khas H4610-KI191026 Tanpa sensor 2025-08-29 21:33:40 API
271291 HEYZO-1980 Pelacur Cantik Berpayudara Besar Yang Sudah Tidak Sabar Kerana Hendak HEYZO-1980 Tanpa sensor 2025-08-29 21:33:30 API
271290 111617-174 Mak Cik Seksi ~ Wanita Berkahwin Tempatan ~ 111617-174 Tanpa sensor 2025-08-29 21:33:20 API
271289 K1284 Wanita Mangsa K1284 Tanpa sensor 2025-08-29 21:33:10 API
271288 H0930-KI181218 Ran Kato Wanita Matang 39 Tahun H0930-KI181218 Tanpa sensor 2025-08-29 21:33:00 API
271285 C0930-KI180813 Yukie Hiroi, Gadis 21 Tahun C0930-KI180813 Tanpa sensor 2025-08-29 21:32:30 API
271284 051419-919 Isteri jiran yang memang sudah mahu dari awal ~ Menggoda dengan alasan mahu pinjam bilik mandi ~ Saori Okumura 051419-919 Tanpa sensor 2025-08-29 21:32:20 API
271283 FC2-PPV-1358425 Adik perempuan tukang gunting rambut yang agak sadis menyalahkan saya dan pancut dalam diri saya FC2-PPV-1358425 Tanpa sensor 2025-08-29 21:32:10 API
271282 051018-01 Era Seragam ~ Pertama Kali Onani Memakai Seragam ~ 051018-01 Tanpa sensor 2025-08-29 21:32:00 API
271281 H0930-KI181220 Miyuki Nakazawa Wanita Seksi Berusia 35 Tahun H0930-KI181220 Tanpa sensor 2025-08-29 21:31:50 API
271280 HEYZO-1981 Bukkake ke arah wanita matang yang cantik HITOMI! HEYZO-1981 Tanpa sensor 2025-08-29 21:31:40 API
271279 H4610-KI191027 Wanita Cantik Mai Sakura Berusia 27 Tahun H4610-KI191027 Tanpa sensor 2025-08-29 21:31:30 API
271278 K1283 Wanita Mangsa K1283 Tanpa sensor 2025-08-29 21:31:20 API
271277 111817-175 Latihan Anal Isteri Orang 111817-175 Tanpa sensor 2025-08-29 21:31:10 API
271276 020117_475 Jom kungfu dewi anda, bunyi hujan bersama Wakana 020117_475 Tanpa sensor 2025-08-29 21:31:00 API
271275 FC2-PPV-1353147 Seks Harem dengan gadis polos dan gadis kacukan Jepun yang menggoda [Rakaman Peribadi] [Ya] FC2-PPV-1353147 Tanpa sensor 2025-08-29 21:30:50 API
271274 051218-01 Aku memanggilnya seperti sekeping pizza yang lazat 051218-01 Tanpa sensor 2025-08-29 21:30:40 API
271273 H4610-KI191029 Akina Koizumi, gadis 21 tahun yang menggoda H4610-KI191029 Tanpa sensor 2025-08-29 21:30:30 API
271272 112117-176 Punggung Seksi Berrompi 112117-176 Tanpa sensor 2025-08-29 21:30:20 API
271271 051519-920 Buku Gambar Puki Nanami Yui 051519-920 Tanpa sensor 2025-08-29 21:30:10 API
271270 C0930-KI180814 Sasahara Yoshino Wanita Matang Berusia 39 Tahun C0930-KI180814 Tanpa sensor 2025-08-29 21:30:00 API
271268 FC2-PPV-1308140 [Rakaman Peribadi] Pekerja Kedai Pakaian Rùo-chan 20 thn & Mahasiswi Ka-chan 20 thn Kali Pertama (3P) Festival Pancutan pada Dua Payudara Besar! FC2-PPV-1308140 Tanpa sensor 2025-08-29 21:29:40 API
271266 HEYZO-1982 Saya suka puting! Perempuan lurah Anri HEYZO-1982 Tanpa sensor 2025-08-29 21:29:20 API
271265 051619-001 Rahsia Tersembunyi ~ Saya suka mengisap secara sembunyi-sembunyi di tandas peribadi ~ Minako Komukai 051619-001 Tanpa sensor 2025-08-29 21:29:10 API
271264 H0930-PLA0098 Mitsuno Matsuda Wanita Matang 39 Tahun H0930-PLA0098 Tanpa sensor 2025-08-29 21:29:00 API
271263 H4610-KI191031 Yoko Higashi, Gadis 21 Tahun H4610-KI191031 Tanpa sensor 2025-08-29 21:28:50 API
271262 051719-921 Menjaga Mizuki Angelia ~ Kehidupan Hamba Seks yang Dihukum Kerana Kepatuhan ~ Mizuki Angelia 051719-921 Tanpa sensor 2025-08-29 21:28:40 API
271261 112317-177 Isteri Orang Jadi Santapan di Rumah ~ Isteri Menggoda Yang Mengundang ~ 112317-177 Tanpa sensor 2025-08-29 21:28:30 API
271260 HEYZO-1983 Biar aku bagi kau puas-puas! HEYZO-1983 Tanpa sensor 2025-08-29 21:28:20 API
271259 020317_476 Serang Jiran Sebelah! Mari Koizumi 020317_476 Tanpa sensor 2025-08-29 21:28:10 API
271258 051518-01 Tuan! Tolong sentuh ia dengan cepat 051518-01 Tanpa sensor 2025-08-29 21:28:00 API
271257 C0930-KI180818 Gadis 20 Tahun Dengan Fetish Kencing C0930-KI180818 Tanpa sensor 2025-08-29 21:27:50 API